sensor_id;sensor_type;location;lat;lon;timestamp;P1;durP1;ratioP1;P2;durP2;ratioP2
31298;SDS011;17927;52.350;13.402;2022-09-29T00:01:29;3.75;;;2.75;;
31298;SDS011;17927;52.350;13.402;2022-09-29T00:03:55;2.40;;;2.30;;
31298;SDS011;17927;52.350;13.402;2022-09-29T00:06:20;2.50;;;2.40;;
31298;SDS011;17927;52.350;13.402;2022-09-29T00:08:45;2.50;;;2.40;;
31298;SDS011;17927;52.350;13.402;2022-09-29T00:11:12;2.90;;;2.78;;
31298;SDS011;17927;52.350;13.402;2022-09-29T00:13:39;2.45;;;2.30;;
31298;SDS011;17927;52.350;13.402;2022-09-29T00:16:05;2.50;;;2.33;;
31298;SDS011;17927;52.350;13.402;2022-09-29T00:18:31;4.55;;;2.70;;
31298;SDS011;17927;52.350;13.402;2022-09-29T00:21:08;3.33;;;3.13;;
31298;SDS011;17927;52.350;13.402;2022-09-29T00:23:36;2.40;;;2.30;;
31298;SDS011;17927;52.350;13.402;2022-09-29T00:26:03;2.85;;;2.55;;
31298;SDS011;17927;52.350;13.402;2022-09-29T00:28:29;3.20;;;2.97;;
31298;SDS011;17927;52.350;13.402;2022-09-29T00:30:56;3.03;;;2.83;;
31298;SDS011;17927;52.350;13.402;2022-09-29T00:33:24;7.78;;;3.78;;
31298;SDS011;17927;52.350;13.402;2022-09-29T00:35:54;3.55;;;3.25;;
31298;SDS011;17927;52.350;13.402;2022-09-29T00:38:22;2.90;;;2.72;;
31298;SDS011;17927;52.350;13.402;2022-09-29T00:40:47;3.53;;;3.33;;
31298;SDS011;17927;52.350;13.402;2022-09-29T00:43:13;2.95;;;2.75;;
31298;SDS011;17927;52.350;13.402;2022-09-29T00:45:45;2.85;;;2.67;;
31298;SDS011;17927;52.350;13.402;2022-09-29T00:48:14;2.88;;;2.67;;
31298;SDS011;17927;52.350;13.402;2022-09-29T00:50:47;2.25;;;2.15;;
31298;SDS011;17927;52.350;13.402;2022-09-29T00:53:15;3.40;;;3.20;;
31298;SDS011;17927;52.350;13.402;2022-09-29T00:55:46;3.75;;;3.45;;
31298;SDS011;17927;52.350;13.402;2022-09-29T00:58:18;3.08;;;2.88;;
31298;SDS011;17927;52.350;13.402;2022-09-29T01:00:52;2.75;;;2.55;;
31298;SDS011;17927;52.350;13.402;2022-09-29T01:03:19;19.80;;;3.83;;
31298;SDS011;17927;52.350;13.402;2022-09-29T01:05:48;6.05;;;3.25;;
31298;SDS011;17927;52.350;13.402;2022-09-29T01:08:21;3.38;;;2.90;;
31298;SDS011;17927;52.350;13.402;2022-09-29T01:10:50;3.15;;;2.95;;
31298;SDS011;17927;52.350;13.402;2022-09-29T01:13:18;3.22;;;3.03;;
31298;SDS011;17927;52.350;13.402;2022-09-29T01:15:44;2.80;;;2.70;;
31298;SDS011;17927;52.350;13.402;2022-09-29T01:18:09;3.17;;;2.97;;
31298;SDS011;17927;52.350;13.402;2022-09-29T01:20:37;4.05;;;2.60;;
31298;SDS011;17927;52.350;13.402;2022-09-29T01:23:19;2.78;;;2.65;;
31298;SDS011;17927;52.350;13.402;2022-09-29T01:29:20;4.90;;;4.50;;
31298;SDS011;17927;52.350;13.402;2022-09-29T01:32:23;4.68;;;4.38;;
31298;SDS011;17927;52.350;13.402;2022-09-29T01:35:02;4.90;;;4.50;;
31298;SDS011;17927;52.350;13.402;2022-09-29T01:40:18;5.28;;;4.88;;
31298;SDS011;17927;52.350;13.402;2022-09-29T01:42:53;5.28;;;4.68;;
31298;SDS011;17927;52.350;13.402;2022-09-29T01:47:49;16.10;;;5.57;;
31298;SDS011;17927;52.350;13.402;2022-09-29T01:50:22;12.60;;;5.18;;
31298;SDS011;17927;52.350;13.402;2022-09-29T01:52:55;18.10;;;4.97;;
31298;SDS011;17927;52.350;13.402;2022-09-29T01:55:25;15.32;;;4.88;;
31298;SDS011;17927;52.350;13.402;2022-09-29T01:57:59;17.17;;;4.88;;
31298;SDS011;17927;52.350;13.402;2022-09-29T02:00:29;45.05;;;5.10;;
31298;SDS011;17927;52.350;13.402;2022-09-29T02:03:07;35.80;;;5.28;;
31298;SDS011;17927;52.350;13.402;2022-09-29T02:05:41;56.42;;;5.82;;
31298;SDS011;17927;52.350;13.402;2022-09-29T02:08:15;91.05;;;6.65;;
31298;SDS011;17927;52.350;13.402;2022-09-29T02:10:51;85.60;;;7.15;;
31298;SDS011;17927;52.350;13.402;2022-09-29T02:13:23;26.92;;;6.18;;
31298;SDS011;17927;52.350;13.402;2022-09-29T02:15:48;69.47;;;7.20;;
31298;SDS011;17927;52.350;13.402;2022-09-29T02:18:23;31.92;;;6.00;;
31298;SDS011;17927;52.350;13.402;2022-09-29T02:20:55;107.38;;;6.78;;
31298;SDS011;17927;52.350;13.402;2022-09-29T02:23:20;71.10;;;6.70;;
31298;SDS011;17927;52.350;13.402;2022-09-29T02:25:46;86.65;;;6.38;;
31298;SDS011;17927;52.350;13.402;2022-09-29T02:28:14;73.45;;;6.25;;
31298;SDS011;17927;52.350;13.402;2022-09-29T02:30:41;36.90;;;5.95;;
31298;SDS011;17927;52.350;13.402;2022-09-29T02:33:15;24.15;;;6.28;;
31298;SDS011;17927;52.350;13.402;2022-09-29T02:36:06;34.25;;;6.50;;
31298;SDS011;17927;52.350;13.402;2022-09-29T02:38:42;18.67;;;5.60;;
31298;SDS011;17927;52.350;13.402;2022-09-29T02:44:24;62.55;;;8.57;;
31298;SDS011;17927;52.350;13.402;2022-09-29T02:52:50;12.18;;;6.50;;
31298;SDS011;17927;52.350;13.402;2022-09-29T02:55:41;7.38;;;5.28;;
31298;SDS011;17927;52.350;13.402;2022-09-29T02:58:31;10.57;;;5.45;;
31298;SDS011;17927;52.350;13.402;2022-09-29T03:01:02;6.10;;;5.70;;
31298;SDS011;17927;52.350;13.402;2022-09-29T03:03:29;6.68;;;6.07;;
31298;SDS011;17927;52.350;13.402;2022-09-29T03:05:54;6.47;;;5.97;;
31298;SDS011;17927;52.350;13.402;2022-09-29T03:08:19;6.30;;;5.72;;
31298;SDS011;17927;52.350;13.402;2022-09-29T03:10:45;7.18;;;6.45;;
31298;SDS011;17927;52.350;13.402;2022-09-29T03:13:10;7.82;;;7.03;;
31298;SDS011;17927;52.350;13.402;2022-09-29T03:15:35;9.48;;;8.25;;
31298;SDS011;17927;52.350;13.402;2022-09-29T03:18:00;8.38;;;7.57;;
31298;SDS011;17927;52.350;13.402;2022-09-29T03:20:27;12.15;;;9.88;;
31298;SDS011;17927;52.350;13.402;2022-09-29T03:22:54;7.78;;;7.07;;
31298;SDS011;17927;52.350;13.402;2022-09-29T03:25:21;8.20;;;6.97;;
31298;SDS011;17927;52.350;13.402;2022-09-29T03:27:48;7.22;;;6.63;;
31298;SDS011;17927;52.350;13.402;2022-09-29T03:30:14;9.25;;;8.35;;
31298;SDS011;17927;52.350;13.402;2022-09-29T03:32:39;9.52;;;8.45;;
31298;SDS011;17927;52.350;13.402;2022-09-29T03:35:06;8.90;;;7.93;;
31298;SDS011;17927;52.350;13.402;2022-09-29T03:37:31;9.02;;;8.10;;
31298;SDS011;17927;52.350;13.402;2022-09-29T03:39:57;8.82;;;8.02;;
31298;SDS011;17927;52.350;13.402;2022-09-29T03:42:22;9.32;;;8.43;;
31298;SDS011;17927;52.350;13.402;2022-09-29T03:44:48;11.00;;;8.48;;
31298;SDS011;17927;52.350;13.402;2022-09-29T03:47:13;10.82;;;8.45;;
31298;SDS011;17927;52.350;13.402;2022-09-29T03:49:39;9.80;;;8.80;;
31298;SDS011;17927;52.350;13.402;2022-09-29T03:52:04;9.73;;;8.73;;
31298;SDS011;17927;52.350;13.402;2022-09-29T03:54:29;8.88;;;8.05;;
31298;SDS011;17927;52.350;13.402;2022-09-29T03:56:54;10.55;;;9.23;;
31298;SDS011;17927;52.350;13.402;2022-09-29T03:59:20;11.05;;;8.90;;
31298;SDS011;17927;52.350;13.402;2022-09-29T04:01:45;9.52;;;8.57;;
31298;SDS011;17927;52.350;13.402;2022-09-29T04:04:10;9.35;;;8.35;;
31298;SDS011;17927;52.350;13.402;2022-09-29T04:06:36;10.00;;;9.00;;
31298;SDS011;17927;52.350;13.402;2022-09-29T04:09:01;9.70;;;8.77;;
31298;SDS011;17927;52.350;13.402;2022-09-29T04:11:27;10.60;;;9.00;;
31298;SDS011;17927;52.350;13.402;2022-09-29T04:13:52;10.50;;;9.43;;
31298;SDS011;17927;52.350;13.402;2022-09-29T04:16:17;11.65;;;10.45;;
31298;SDS011;17927;52.350;13.402;2022-09-29T04:18:43;9.80;;;8.80;;
31298;SDS011;17927;52.350;13.402;2022-09-29T04:21:08;10.90;;;9.82;;
31298;SDS011;17927;52.350;13.402;2022-09-29T04:23:34;14.05;;;10.05;;
31298;SDS011;17927;52.350;13.402;2022-09-29T04:26:00;10.18;;;9.10;;
31298;SDS011;17927;52.350;13.402;2022-09-29T04:28:26;12.13;;;9.88;;
31298;SDS011;17927;52.350;13.402;2022-09-29T04:30:54;14.30;;;9.35;;
31298;SDS011;17927;52.350;13.402;2022-09-29T04:33:20;11.45;;;10.07;;
31298;SDS011;17927;52.350;13.402;2022-09-29T04:35:45;11.20;;;9.82;;
31298;SDS011;17927;52.350;13.402;2022-09-29T04:38:10;11.93;;;10.48;;
31298;SDS011;17927;52.350;13.402;2022-09-29T04:40:36;12.57;;;11.05;;
31298;SDS011;17927;52.350;13.402;2022-09-29T04:43:01;11.77;;;10.27;;
31298;SDS011;17927;52.350;13.402;2022-09-29T04:45:28;13.13;;;10.32;;
31298;SDS011;17927;52.350;13.402;2022-09-29T04:47:53;15.02;;;10.68;;
31298;SDS011;17927;52.350;13.402;2022-09-29T04:50:19;14.23;;;11.48;;
31298;SDS011;17927;52.350;13.402;2022-09-29T04:52:44;12.18;;;10.85;;
31298;SDS011;17927;52.350;13.402;2022-09-29T04:55:10;10.50;;;9.40;;
31298;SDS011;17927;52.350;13.402;2022-09-29T04:57:39;12.25;;;10.02;;
31298;SDS011;17927;52.350;13.402;2022-09-29T05:00:06;11.40;;;9.60;;
31298;SDS011;17927;52.350;13.402;2022-09-29T05:02:33;11.77;;;10.02;;
31298;SDS011;17927;52.350;13.402;2022-09-29T05:04:58;11.38;;;10.15;;
31298;SDS011;17927;52.350;13.402;2022-09-29T05:07:24;14.77;;;10.85;;
31298;SDS011;17927;52.350;13.402;2022-09-29T05:09:49;12.43;;;11.13;;
31298;SDS011;17927;52.350;13.402;2022-09-29T05:12:14;11.18;;;10.02;;
31298;SDS011;17927;52.350;13.402;2022-09-29T05:14:40;13.65;;;9.70;;
31298;SDS011;17927;52.350;13.402;2022-09-29T05:17:05;16.15;;;11.60;;
31298;SDS011;17927;52.350;13.402;2022-09-29T05:19:30;13.20;;;10.98;;
31298;SDS011;17927;52.350;13.402;2022-09-29T05:21:56;15.43;;;11.88;;
31298;SDS011;17927;52.350;13.402;2022-09-29T05:24:22;15.63;;;12.52;;
31298;SDS011;17927;52.350;13.402;2022-09-29T05:26:47;21.60;;;12.75;;
31298;SDS011;17927;52.350;13.402;2022-09-29T05:29:13;15.60;;;13.00;;
31298;SDS011;17927;52.350;13.402;2022-09-29T05:31:38;15.02;;;11.55;;
31298;SDS011;17927;52.350;13.402;2022-09-29T05:34:03;18.95;;;12.45;;
31298;SDS011;17927;52.350;13.402;2022-09-29T05:36:28;12.77;;;10.45;;
31298;SDS011;17927;52.350;13.402;2022-09-29T05:38:54;18.42;;;13.15;;
31298;SDS011;17927;52.350;13.402;2022-09-29T05:41:20;13.02;;;10.85;;
31298;SDS011;17927;52.350;13.402;2022-09-29T05:43:48;14.80;;;10.93;;
31298;SDS011;17927;52.350;13.402;2022-09-29T05:46:14;14.95;;;11.38;;
31298;SDS011;17927;52.350;13.402;2022-09-29T05:48:40;16.75;;;11.30;;
31298;SDS011;17927;52.350;13.402;2022-09-29T05:51:08;14.82;;;11.23;;
31298;SDS011;17927;52.350;13.402;2022-09-29T05:53:35;13.82;;;11.30;;
31298;SDS011;17927;52.350;13.402;2022-09-29T05:56:07;14.38;;;11.75;;
31298;SDS011;17927;52.350;13.402;2022-09-29T05:58:34;13.93;;;11.48;;
31298;SDS011;17927;52.350;13.402;2022-09-29T06:01:04;15.18;;;11.70;;
31298;SDS011;17927;52.350;13.402;2022-09-29T06:03:31;19.58;;;12.27;;
31298;SDS011;17927;52.350;13.402;2022-09-29T06:06:02;16.90;;;11.50;;
31298;SDS011;17927;52.350;13.402;2022-09-29T06:08:29;13.82;;;11.50;;
31298;SDS011;17927;52.350;13.402;2022-09-29T06:10:54;14.23;;;12.20;;
31298;SDS011;17927;52.350;13.402;2022-09-29T06:13:25;16.98;;;12.95;;
31298;SDS011;17927;52.350;13.402;2022-09-29T06:15:51;15.45;;;12.10;;
31298;SDS011;17927;52.350;13.402;2022-09-29T06:18:16;15.63;;;12.73;;
31298;SDS011;17927;52.350;13.402;2022-09-29T06:20:41;15.50;;;12.43;;
31298;SDS011;17927;52.350;13.402;2022-09-29T06:23:07;15.50;;;12.93;;
31298;SDS011;17927;52.350;13.402;2022-09-29T06:25:32;14.50;;;11.68;;
31298;SDS011;17927;52.350;13.402;2022-09-29T06:27:57;15.15;;;11.68;;
31298;SDS011;17927;52.350;13.402;2022-09-29T06:30:22;15.95;;;12.60;;
31298;SDS011;17927;52.350;13.402;2022-09-29T06:32:48;16.10;;;12.60;;
31298;SDS011;17927;52.350;13.402;2022-09-29T06:35:13;17.10;;;12.95;;
31298;SDS011;17927;52.350;13.402;2022-09-29T06:37:57;14.32;;;11.02;;
31298;SDS011;17927;52.350;13.402;2022-09-29T06:40:22;17.40;;;14.38;;
31298;SDS011;17927;52.350;13.402;2022-09-29T06:42:49;14.80;;;12.13;;
31298;SDS011;17927;52.350;13.402;2022-09-29T06:45:14;15.32;;;12.68;;
31298;SDS011;17927;52.350;13.402;2022-09-29T06:47:39;15.20;;;12.70;;
31298;SDS011;17927;52.350;13.402;2022-09-29T06:50:05;16.88;;;12.90;;
31298;SDS011;17927;52.350;13.402;2022-09-29T06:52:30;16.00;;;12.07;;
31298;SDS011;17927;52.350;13.402;2022-09-29T06:54:57;15.02;;;12.45;;
31298;SDS011;17927;52.350;13.402;2022-09-29T06:57:22;17.92;;;13.38;;
31298;SDS011;17927;52.350;13.402;2022-09-29T06:59:47;15.20;;;12.30;;
31298;SDS011;17927;52.350;13.402;2022-09-29T07:02:12;14.45;;;12.10;;
31298;SDS011;17927;52.350;13.402;2022-09-29T07:04:38;15.38;;;12.23;;
31298;SDS011;17927;52.350;13.402;2022-09-29T07:07:04;16.25;;;12.93;;
31298;SDS011;17927;52.350;13.402;2022-09-29T07:09:29;17.00;;;12.95;;
31298;SDS011;17927;52.350;13.402;2022-09-29T07:11:54;16.42;;;12.48;;
31298;SDS011;17927;52.350;13.402;2022-09-29T07:14:20;14.75;;;12.90;;
31298;SDS011;17927;52.350;13.402;2022-09-29T07:16:46;16.15;;;12.82;;
31298;SDS011;17927;52.350;13.402;2022-09-29T07:19:12;16.05;;;13.32;;
31298;SDS011;17927;52.350;13.402;2022-09-29T07:21:38;19.52;;;13.90;;
31298;SDS011;17927;52.350;13.402;2022-09-29T07:24:04;19.38;;;13.65;;
31298;SDS011;17927;52.350;13.402;2022-09-29T07:26:29;17.55;;;13.77;;
31298;SDS011;17927;52.350;13.402;2022-09-29T07:28:55;16.55;;;13.20;;
31298;SDS011;17927;52.350;13.402;2022-09-29T07:31:21;17.35;;;13.73;;
31298;SDS011;17927;52.350;13.402;2022-09-29T07:33:48;14.25;;;12.45;;
31298;SDS011;17927;52.350;13.402;2022-09-29T07:36:15;14.85;;;12.98;;
31298;SDS011;17927;52.350;13.402;2022-09-29T07:38:44;14.60;;;12.88;;
31298;SDS011;17927;52.350;13.402;2022-09-29T07:41:10;19.70;;;13.77;;
31298;SDS011;17927;52.350;13.402;2022-09-29T07:43:36;15.55;;;13.68;;
31298;SDS011;17927;52.350;13.402;2022-09-29T07:46:02;18.95;;;14.40;;
31298;SDS011;17927;52.350;13.402;2022-09-29T07:48:28;19.95;;;13.98;;
31298;SDS011;17927;52.350;13.402;2022-09-29T07:51:05;17.27;;;13.68;;
31298;SDS011;17927;52.350;13.402;2022-09-29T07:53:33;16.40;;;13.35;;
31298;SDS011;17927;52.350;13.402;2022-09-29T07:56:03;17.55;;;13.73;;
31298;SDS011;17927;52.350;13.402;2022-09-29T07:58:45;17.30;;;13.50;;
31298;SDS011;17927;52.350;13.402;2022-09-29T08:01:12;16.08;;;12.93;;
31298;SDS011;17927;52.350;13.402;2022-09-29T08:03:40;16.60;;;13.68;;
31298;SDS011;17927;52.350;13.402;2022-09-29T08:06:07;15.50;;;13.00;;
31298;SDS011;17927;52.350;13.402;2022-09-29T08:08:34;18.23;;;14.52;;
31298;SDS011;17927;52.350;13.402;2022-09-29T08:11:01;16.40;;;13.10;;
31298;SDS011;17927;52.350;13.402;2022-09-29T08:13:30;15.98;;;13.00;;
31298;SDS011;17927;52.350;13.402;2022-09-29T08:15:58;18.55;;;13.95;;
31298;SDS011;17927;52.350;13.402;2022-09-29T08:18:24;16.85;;;13.07;;
31298;SDS011;17927;52.350;13.402;2022-09-29T08:20:50;18.27;;;13.90;;
31298;SDS011;17927;52.350;13.402;2022-09-29T08:23:17;19.08;;;15.10;;
31298;SDS011;17927;52.350;13.402;2022-09-29T08:25:43;17.08;;;14.75;;
31298;SDS011;17927;52.350;13.402;2022-09-29T08:28:08;16.52;;;13.68;;
31298;SDS011;17927;52.350;13.402;2022-09-29T08:30:35;15.35;;;13.75;;
31298;SDS011;17927;52.350;13.402;2022-09-29T08:33:00;17.23;;;13.80;;
31298;SDS011;17927;52.350;13.402;2022-09-29T08:35:25;17.63;;;13.70;;
31298;SDS011;17927;52.350;13.402;2022-09-29T08:37:51;17.02;;;14.57;;
31298;SDS011;17927;52.350;13.402;2022-09-29T08:40:19;18.90;;;14.43;;
31298;SDS011;17927;52.350;13.402;2022-09-29T08:42:55;18.48;;;14.40;;
31298;SDS011;17927;52.350;13.402;2022-09-29T08:45:28;17.65;;;13.98;;
31298;SDS011;17927;52.350;13.402;2022-09-29T08:47:59;17.23;;;14.85;;
31298;SDS011;17927;52.350;13.402;2022-09-29T08:50:35;16.08;;;12.73;;
31298;SDS011;17927;52.350;13.402;2022-09-29T08:53:07;18.00;;;13.88;;
31298;SDS011;17927;52.350;13.402;2022-09-29T08:58:01;17.20;;;14.57;;
31298;SDS011;17927;52.350;13.402;2022-09-29T09:00:34;16.08;;;13.57;;
31298;SDS011;17927;52.350;13.402;2022-09-29T09:03:14;19.65;;;14.70;;
31298;SDS011;17927;52.350;13.402;2022-09-29T09:05:55;16.02;;;13.52;;
31298;SDS011;17927;52.350;13.402;2022-09-29T09:08:41;16.30;;;14.23;;
31298;SDS011;17927;52.350;13.402;2022-09-29T09:11:19;15.98;;;12.98;;
31298;SDS011;17927;52.350;13.402;2022-09-29T09:14:01;16.45;;;14.30;;
31298;SDS011;17927;52.350;13.402;2022-09-29T09:16:59;20.58;;;13.93;;
31298;SDS011;17927;52.350;13.402;2022-09-29T09:19:52;15.60;;;13.98;;
31298;SDS011;17927;52.350;13.402;2022-09-29T09:22:41;17.58;;;14.77;;
31298;SDS011;17927;52.350;13.402;2022-09-29T09:25:30;15.02;;;13.50;;
31298;SDS011;17927;52.350;13.402;2022-09-29T09:28:10;13.88;;;12.43;;
31298;SDS011;17927;52.350;13.402;2022-09-29T09:30:48;13.82;;;12.25;;
31298;SDS011;17927;52.350;13.402;2022-09-29T09:34:02;17.30;;;13.35;;
31298;SDS011;17927;52.350;13.402;2022-09-29T09:36:15;12.50;;;11.20;;
31298;SDS011;17927;52.350;13.402;2022-09-29T09:38:57;14.13;;;12.40;;
31298;SDS011;17927;52.350;13.402;2022-09-29T09:41:26;16.25;;;12.55;;
31298;SDS011;17927;52.350;13.402;2022-09-29T09:43:58;13.95;;;12.38;;
31298;SDS011;17927;52.350;13.402;2022-09-29T09:46:31;15.52;;;13.02;;
31298;SDS011;17927;52.350;13.402;2022-09-29T09:49:06;14.25;;;12.73;;
31298;SDS011;17927;52.350;13.402;2022-09-29T09:54:34;13.73;;;11.70;;
31298;SDS011;17927;52.350;13.402;2022-09-29T09:57:07;11.82;;;10.65;;
31298;SDS011;17927;52.350;13.402;2022-09-29T10:02:02;11.63;;;10.47;;
31298;SDS011;17927;52.350;13.402;2022-09-29T10:04:27;13.57;;;11.95;;
31298;SDS011;17927;52.350;13.402;2022-09-29T10:06:53;14.45;;;12.45;;
31298;SDS011;17927;52.350;13.402;2022-09-29T10:09:19;13.38;;;11.75;;
31298;SDS011;17927;52.350;13.402;2022-09-29T10:11:44;12.73;;;11.43;;
31298;SDS011;17927;52.350;13.402;2022-09-29T10:14:14;11.65;;;10.52;;
31298;SDS011;17927;52.350;13.402;2022-09-29T10:16:46;16.00;;;11.88;;
31298;SDS011;17927;52.350;13.402;2022-09-29T10:19:22;12.18;;;10.95;;
31298;SDS011;17927;52.350;13.402;2022-09-29T10:22:11;14.05;;;10.52;;
31298;SDS011;17927;52.350;13.402;2022-09-29T10:24:38;15.40;;;11.13;;
31298;SDS011;17927;52.350;13.402;2022-09-29T10:27:03;12.35;;;10.75;;
31298;SDS011;17927;52.350;13.402;2022-09-29T10:29:39;12.80;;;11.00;;
31298;SDS011;17927;52.350;13.402;2022-09-29T10:32:08;13.38;;;11.02;;
31298;SDS011;17927;52.350;13.402;2022-09-29T10:34:39;12.90;;;8.88;;
31298;SDS011;17927;52.350;13.402;2022-09-29T10:37:29;9.88;;;8.60;;
31298;SDS011;17927;52.350;13.402;2022-09-29T10:40:02;10.45;;;9.30;;
31298;SDS011;17927;52.350;13.402;2022-09-29T10:42:39;9.18;;;8.25;;
31298;SDS011;17927;52.350;13.402;2022-09-29T10:45:16;10.57;;;9.57;;
31298;SDS011;17927;52.350;13.402;2022-09-29T10:47:45;10.52;;;9.43;;
31298;SDS011;17927;52.350;13.402;2022-09-29T10:50:32;9.45;;;8.45;;
31298;SDS011;17927;52.350;13.402;2022-09-29T10:53:01;12.75;;;8.88;;
31298;SDS011;17927;52.350;13.402;2022-09-29T10:55:31;9.55;;;8.63;;
31298;SDS011;17927;52.350;13.402;2022-09-29T10:57:59;6.15;;;5.55;;
31298;SDS011;17927;52.350;13.402;2022-09-29T11:03:06;7.10;;;6.32;;
31298;SDS011;17927;52.350;13.402;2022-09-29T11:05:48;7.90;;;7.20;;
31298;SDS011;17927;52.350;13.402;2022-09-29T11:08:16;8.02;;;7.28;;
31298;SDS011;17927;52.350;13.402;2022-09-29T11:10:43;6.43;;;5.93;;
31298;SDS011;17927;52.350;13.402;2022-09-29T11:15:44;5.22;;;4.88;;
31298;SDS011;17927;52.350;13.402;2022-09-29T11:18:17;5.40;;;5.00;;
31298;SDS011;17927;52.350;13.402;2022-09-29T11:20:43;6.05;;;5.50;;
31298;SDS011;17927;52.350;13.402;2022-09-29T11:23:15;7.28;;;6.65;;
31298;SDS011;17927;52.350;13.402;2022-09-29T11:25:52;5.85;;;5.45;;
31298;SDS011;17927;52.350;13.402;2022-09-29T11:33:54;5.43;;;3.88;;
31298;SDS011;17927;52.350;13.402;2022-09-29T11:37:05;4.20;;;3.90;;
31298;SDS011;17927;52.350;13.402;2022-09-29T11:39:52;4.50;;;4.10;;
31298;SDS011;17927;52.350;13.402;2022-09-29T11:42:34;4.97;;;4.60;;
31298;SDS011;17927;52.350;13.402;2022-09-29T11:45:07;5.45;;;4.50;;
31298;SDS011;17927;52.350;13.402;2022-09-29T11:50:18;4.18;;;3.80;;
31298;SDS011;17927;52.350;13.402;2022-09-29T11:53:03;4.13;;;3.67;;
31298;SDS011;17927;52.350;13.402;2022-09-29T11:55:36;5.43;;;3.50;;
31298;SDS011;17927;52.350;13.402;2022-09-29T12:01:12;3.90;;;3.60;;
31298;SDS011;17927;52.350;13.402;2022-09-29T12:03:51;3.70;;;3.40;;
31298;SDS011;17927;52.350;13.402;2022-09-29T12:09:15;3.38;;;3.17;;
31298;SDS011;17927;52.350;13.402;2022-09-29T12:14:57;3.15;;;2.80;;
31298;SDS011;17927;52.350;13.402;2022-09-29T12:17:32;3.78;;;3.47;;
31298;SDS011;17927;52.350;13.402;2022-09-29T12:20:11;3.40;;;3.10;;
31298;SDS011;17927;52.350;13.402;2022-09-29T12:22:43;3.22;;;2.90;;
31298;SDS011;17927;52.350;13.402;2022-09-29T12:25:18;3.40;;;3.20;;
31298;SDS011;17927;52.350;13.402;2022-09-29T12:27:54;3.58;;;3.35;;
31298;SDS011;17927;52.350;13.402;2022-09-29T12:30:24;2.88;;;2.67;;
31298;SDS011;17927;52.350;13.402;2022-09-29T12:33:01;2.70;;;2.55;;
31298;SDS011;17927;52.350;13.402;2022-09-29T12:38:18;3.30;;;3.03;;
31298;SDS011;17927;52.350;13.402;2022-09-29T12:41:09;3.20;;;2.90;;
31298;SDS011;17927;52.350;13.402;2022-09-29T12:43:40;2.90;;;2.67;;
31298;SDS011;17927;52.350;13.402;2022-09-29T12:46:12;2.45;;;2.35;;
31298;SDS011;17927;52.350;13.402;2022-09-29T12:51:36;2.05;;;1.95;;
31298;SDS011;17927;52.350;13.402;2022-09-29T12:54:27;2.03;;;1.92;;
31298;SDS011;17927;52.350;13.402;2022-09-29T12:57:12;2.10;;;1.92;;
31298;SDS011;17927;52.350;13.402;2022-09-29T13:08:13;1.90;;;1.80;;
31298;SDS011;17927;52.350;13.402;2022-09-29T13:10:56;2.97;;;2.53;;
31298;SDS011;17927;52.350;13.402;2022-09-29T13:16:25;1.50;;;1.40;;
31298;SDS011;17927;52.350;13.402;2022-09-29T13:19:12;1.85;;;1.75;;
31298;SDS011;17927;52.350;13.402;2022-09-29T13:22:04;2.63;;;1.85;;
31298;SDS011;17927;52.350;13.402;2022-09-29T13:28:00;1.45;;;1.35;;
31298;SDS011;17927;52.350;13.402;2022-09-29T13:30:29;1.60;;;1.50;;
31298;SDS011;17927;52.350;13.402;2022-09-29T13:33:02;1.13;;;1.13;;
31298;SDS011;17927;52.350;13.402;2022-09-29T13:35:39;1.60;;;1.50;;
31298;SDS011;17927;52.350;13.402;2022-09-29T13:38:10;2.42;;;2.20;;
31298;SDS011;17927;52.350;13.402;2022-09-29T13:40:40;2.45;;;2.33;;
31298;SDS011;17927;52.350;13.402;2022-09-29T13:54:32;1.67;;;1.58;;
31298;SDS011;17927;52.350;13.402;2022-09-29T13:59:36;3.42;;;1.33;;
31298;SDS011;17927;52.350;13.402;2022-09-29T14:02:16;2.22;;;1.30;;
31298;SDS011;17927;52.350;13.402;2022-09-29T14:04:45;1.20;;;1.20;;
31298;SDS011;17927;52.350;13.402;2022-09-29T14:12:46;1.42;;;1.33;;
31298;SDS011;17927;52.350;13.402;2022-09-29T14:15:19;1.58;;;1.20;;
31298;SDS011;17927;52.350;13.402;2022-09-29T14:17:47;1.35;;;1.33;;
31298;SDS011;17927;52.350;13.402;2022-09-29T14:20:20;1.25;;;1.02;;
31298;SDS011;17927;52.350;13.402;2022-09-29T14:22:51;1.30;;;1.20;;
31298;SDS011;17927;52.350;13.402;2022-09-29T14:27:44;1.30;;;1.20;;
31298;SDS011;17927;52.350;13.402;2022-09-29T14:30:38;1.30;;;1.20;;
31298;SDS011;17927;52.350;13.402;2022-09-29T14:33:20;1.20;;;1.10;;
31298;SDS011;17927;52.350;13.402;2022-09-29T14:35:52;1.33;;;1.20;;
31298;SDS011;17927;52.350;13.402;2022-09-29T14:38:41;1.08;;;1.08;;
31298;SDS011;17927;52.350;13.402;2022-09-29T14:43:41;1.60;;;1.50;;
31298;SDS011;17927;52.350;13.402;2022-09-29T14:49:30;1.40;;;1.30;;
31298;SDS011;17927;52.350;13.402;2022-09-29T14:55:37;2.15;;;1.77;;
31298;SDS011;17927;52.350;13.402;2022-09-29T14:58:24;3.22;;;1.30;;
31298;SDS011;17927;52.350;13.402;2022-09-29T15:01:27;2.08;;;1.88;;
31298;SDS011;17927;52.350;13.402;2022-09-29T15:03:55;1.33;;;1.23;;
31298;SDS011;17927;52.350;13.402;2022-09-29T15:06:24;2.10;;;1.15;;
31298;SDS011;17927;52.350;13.402;2022-09-29T15:08:52;1.50;;;1.40;;
31298;SDS011;17927;52.350;13.402;2022-09-29T15:11:21;1.70;;;1.60;;
31298;SDS011;17927;52.350;13.402;2022-09-29T15:13:49;1.38;;;1.30;;
31298;SDS011;17927;52.350;13.402;2022-09-29T15:18:58;1.48;;;1.30;;
31298;SDS011;17927;52.350;13.402;2022-09-29T15:21:37;1.23;;;1.13;;
31298;SDS011;17927;52.350;13.402;2022-09-29T15:24:18;1.20;;;1.20;;
31298;SDS011;17927;52.350;13.402;2022-09-29T15:27:00;1.42;;;1.33;;
31298;SDS011;17927;52.350;13.402;2022-09-29T15:31:54;2.15;;;1.75;;
31298;SDS011;17927;52.350;13.402;2022-09-29T15:34:19;1.70;;;1.60;;
31298;SDS011;17927;52.350;13.402;2022-09-29T15:36:49;1.42;;;1.33;;
31298;SDS011;17927;52.350;13.402;2022-09-29T15:44:43;1.15;;;1.15;;
31298;SDS011;17927;52.350;13.402;2022-09-29T15:47:26;1.15;;;1.10;;
31298;SDS011;17927;52.350;13.402;2022-09-29T15:49:59;1.30;;;1.20;;
31298;SDS011;17927;52.350;13.402;2022-09-29T15:52:29;1.92;;;1.75;;
31298;SDS011;17927;52.350;13.402;2022-09-29T15:54:55;2.05;;;1.30;;
31298;SDS011;17927;52.350;13.402;2022-09-29T15:57:28;1.13;;;1.13;;
31298;SDS011;17927;52.350;13.402;2022-09-29T16:02:45;3.08;;;2.80;;
31298;SDS011;17927;52.350;13.402;2022-09-29T16:05:27;3.60;;;3.28;;
31298;SDS011;17927;52.350;13.402;2022-09-29T16:08:02;4.25;;;3.85;;
31298;SDS011;17927;52.350;13.402;2022-09-29T16:10:31;3.67;;;3.38;;
31298;SDS011;17927;52.350;13.402;2022-09-29T16:13:02;3.00;;;2.70;;
31298;SDS011;17927;52.350;13.402;2022-09-29T16:18:06;2.80;;;2.63;;
31298;SDS011;17927;52.350;13.402;2022-09-29T16:20:37;3.78;;;2.65;;
31298;SDS011;17927;52.350;13.402;2022-09-29T16:23:33;2.45;;;2.30;;
31298;SDS011;17927;52.350;13.402;2022-09-29T16:29:04;9.77;;;2.50;;
31298;SDS011;17927;52.350;13.402;2022-09-29T16:31:50;2.25;;;2.15;;
31298;SDS011;17927;52.350;13.402;2022-09-29T16:36:47;2.50;;;2.30;;
31298;SDS011;17927;52.350;13.402;2022-09-29T16:39:18;3.03;;;2.03;;
31298;SDS011;17927;52.350;13.402;2022-09-29T16:41:49;2.17;;;2.08;;
31298;SDS011;17927;52.350;13.402;2022-09-29T16:46:54;2.60;;;2.40;;
31298;SDS011;17927;52.350;13.402;2022-09-29T16:51:57;4.03;;;2.90;;